createdAt,value
2023-03-01T00:01:49.819Z,30.80
2023-03-01T00:04:18.624Z,23.60
2023-03-01T00:06:48.429Z,28.10
2023-03-01T00:09:16.601Z,30.00
2023-03-01T00:11:45.730Z,25.10
2023-03-01T00:14:14.248Z,22.10
2023-03-01T00:16:47.548Z,24.40
2023-03-01T00:19:18.159Z,25.00
2023-03-01T00:21:46.183Z,21.30
2023-03-01T00:24:14.637Z,29.20
2023-03-01T00:26:42.624Z,24.30
2023-03-01T00:29:10.892Z,28.60
2023-03-01T00:31:40.063Z,23.80
2023-03-01T00:34:10.138Z,27.90
2023-03-01T00:36:39.947Z,25.10
2023-03-01T00:39:15.700Z,24.00
2023-03-01T00:41:46.066Z,28.30
2023-03-01T00:44:16.599Z,24.90
2023-03-01T00:46:44.726Z,25.00
2023-03-01T00:49:12.796Z,25.50
2023-03-01T00:51:42.637Z,29.80
2023-03-01T00:54:10.991Z,27.10
2023-03-01T00:56:41.190Z,23.00
2023-03-01T00:59:10.288Z,24.60
2023-03-01T01:01:39.289Z,30.90
2023-03-01T01:04:10.244Z,25.60
2023-03-01T01:06:45.859Z,25.80
2023-03-01T01:09:20.200Z,26.00
2023-03-01T01:11:49.837Z,24.30
2023-03-01T01:14:18.622Z,31.70
2023-03-01T01:16:46.959Z,27.30
2023-03-01T01:19:15.764Z,29.00
2023-03-01T01:21:44.401Z,31.80
2023-03-01T01:24:13.018Z,23.40
2023-03-01T01:26:42.240Z,27.30
2023-03-01T01:29:10.274Z,26.80
2023-03-01T01:31:39.559Z,25.90
2023-03-01T01:34:08.981Z,27.10
2023-03-01T01:36:37.128Z,25.30
2023-03-01T01:39:05.567Z,28.20
2023-03-01T01:41:33.831Z,29.10
2023-03-01T01:44:22.985Z,25.90
2023-03-01T01:46:57.527Z,28.00
2023-03-01T01:49:48.360Z,27.10
2023-03-01T01:55:02.514Z,26.30
2023-03-01T01:57:48.397Z,29.50
2023-03-01T02:00:20.351Z,29.00
2023-03-01T02:02:50.368Z,30.20
2023-03-01T02:05:27.980Z,27.80
2023-03-01T02:07:58.078Z,25.60
2023-03-01T02:10:26.383Z,26.90
2023-03-01T02:12:54.698Z,25.60
2023-03-01T02:15:24.481Z,24.90
2023-03-01T02:17:54.584Z,30.00
2023-03-01T02:20:31.995Z,26.70
2023-03-01T02:23:00.121Z,29.70
2023-03-01T02:25:47.203Z,29.30
2023-03-01T02:28:35.115Z,23.80
2023-03-01T02:31:23.262Z,30.50
2023-03-01T02:33:51.502Z,28.00
2023-03-01T02:36:22.632Z,26.50
2023-03-01T02:38:53.165Z,33.30
2023-03-01T02:41:21.849Z,29.70
2023-03-01T02:43:50.027Z,29.00
2023-03-01T02:46:23.404Z,31.10
2023-03-01T02:48:56.646Z,25.80
2023-03-01T02:51:34.577Z,26.90
2023-03-01T02:54:53.906Z,27.80
2023-03-01T03:00:50.496Z,32.40
2023-03-01T03:03:20.951Z,31.10
2023-03-01T03:05:53.556Z,32.00
2023-03-01T03:08:25.285Z,28.10
2023-03-01T03:10:54.128Z,28.70
2023-03-01T03:13:23.213Z,28.90
2023-03-01T03:15:52.096Z,29.80
2023-03-01T03:18:20.238Z,28.90
2023-03-01T03:20:54.170Z,26.70
2023-03-01T03:23:22.333Z,25.30
2023-03-01T03:25:50.953Z,31.10
2023-03-01T03:28:19.208Z,26.00
2023-03-01T03:30:47.997Z,30.40
2023-03-01T03:33:16.106Z,27.00
2023-03-01T03:35:47.009Z,32.80
2023-03-01T03:38:17.085Z,28.60
2023-03-01T03:41:05.671Z,32.00
2023-03-01T03:43:35.912Z,29.30
2023-03-01T03:46:08.568Z,32.50
2023-03-01T03:48:41.874Z,28.90
2023-03-01T03:51:14.403Z,32.40
2023-03-01T03:53:45.854Z,28.80
2023-03-01T03:56:14.056Z,26.10
2023-03-01T03:58:43.162Z,31.90
2023-03-01T04:01:11.576Z,31.60
2023-03-01T04:03:42.991Z,33.10
2023-03-01T04:06:11.576Z,27.40
2023-03-01T04:08:42.017Z,29.90
2023-03-01T04:11:28.609Z,36.50
2023-03-01T04:13:59.280Z,30.40
2023-03-01T04:16:27.975Z,26.80
2023-03-01T04:18:56.423Z,31.00
2023-03-01T04:21:24.460Z,32.40
2023-03-01T04:23:54.445Z,29.60
2023-03-01T04:26:25.429Z,31.40
2023-03-01T04:28:53.812Z,32.20
2023-03-01T04:31:25.840Z,31.00
2023-03-01T04:33:55.702Z,29.50
2023-03-01T04:36:26.722Z,32.40
2023-03-01T04:38:55.307Z,32.10
2023-03-01T04:41:24.321Z,27.10
2023-03-01T04:43:53.930Z,30.10
2023-03-01T04:46:22.693Z,31.80
2023-03-01T04:48:56.075Z,26.80
2023-03-01T04:51:24.386Z,36.60
2023-03-01T04:53:52.468Z,32.20
2023-03-01T04:56:20.353Z,28.10
2023-03-01T04:58:48.392Z,32.20
2023-03-01T05:01:18.685Z,33.10
2023-03-01T05:03:48.748Z,30.80
2023-03-01T05:06:18.030Z,34.80
2023-03-01T05:08:46.621Z,33.30
2023-03-01T05:11:14.761Z,35.70
2023-03-01T05:13:44.551Z,33.00
2023-03-01T05:16:13.251Z,30.00
2023-03-01T05:18:42.623Z,32.60
2023-03-01T05:21:13.701Z,32.70
2023-03-01T05:23:44.990Z,28.50
2023-03-01T05:26:27.371Z,31.30
2023-03-01T05:29:00.447Z,32.90
2023-03-01T05:31:31.957Z,27.00
2023-03-01T05:34:00.246Z,29.30
2023-03-01T05:36:28.424Z,31.60
2023-03-01T05:38:56.829Z,30.10
2023-03-01T05:41:25.056Z,33.80
2023-03-01T05:43:54.186Z,32.60
2023-03-01T05:46:25.570Z,37.40
2023-03-01T05:48:54.388Z,24.80
2023-03-01T05:51:23.292Z,32.50
2023-03-01T05:53:51.320Z,29.10
2023-03-01T05:56:19.517Z,31.00
2023-03-01T05:58:49.416Z,29.00
2023-03-01T06:01:17.900Z,30.60
2023-03-01T06:03:48.075Z,25.30
2023-03-01T06:06:16.086Z,32.20
2023-03-01T06:08:50.308Z,28.60
2023-03-01T06:11:19.211Z,32.20
2023-03-01T06:13:47.918Z,31.90
2023-03-01T06:16:23.328Z,29.80
2023-03-01T06:18:51.644Z,30.70
2023-03-01T06:21:19.714Z,30.50
2023-03-01T06:23:48.703Z,28.00
2023-03-01T06:26:17.008Z,37.20
2023-03-01T06:28:47.263Z,31.30
2023-03-01T06:31:16.960Z,30.80
2023-03-01T06:33:45.779Z,27.80
2023-03-01T06:36:17.008Z,28.20
2023-03-01T06:38:46.240Z,30.80
2023-03-01T06:41:14.427Z,27.80
2023-03-01T06:43:42.484Z,27.90
2023-03-01T06:46:10.820Z,31.80
2023-03-01T06:48:38.919Z,29.10
2023-03-01T06:51:08.459Z,24.60
2023-03-01T06:53:41.468Z,31.90
2023-03-01T06:56:11.457Z,26.60
2023-03-01T06:58:42.580Z,30.70
2023-03-01T07:01:11.108Z,29.30
2023-03-01T07:03:39.804Z,26.10
2023-03-01T07:06:09.430Z,29.10
2023-03-01T07:08:38.298Z,30.30
2023-03-01T07:11:06.901Z,25.80
2023-03-01T07:13:44.681Z,27.90
2023-03-01T07:16:12.848Z,22.50
2023-03-01T07:18:41.650Z,27.90
2023-03-01T07:21:13.010Z,27.70
2023-03-01T07:23:45.037Z,27.70
2023-03-01T07:26:14.524Z,26.20
2023-03-01T07:28:47.502Z,29.70
2023-03-01T07:31:16.559Z,24.90
2023-03-01T07:33:46.169Z,35.70
2023-03-01T07:36:15.510Z,26.50
2023-03-01T07:38:45.891Z,28.10
2023-03-01T07:41:14.344Z,29.10
2023-03-01T07:43:43.571Z,25.40
2023-03-01T07:46:11.985Z,24.20
2023-03-01T07:48:43.740Z,24.30
2023-03-01T07:51:14.994Z,26.80
2023-03-01T07:53:42.924Z,30.40
2023-03-01T07:56:14.008Z,28.70
2023-03-01T07:58:44.991Z,29.00
2023-03-01T08:01:19.539Z,28.00
2023-03-01T08:03:48.405Z,27.50
2023-03-01T08:06:17.623Z,29.40
2023-03-01T08:08:46.060Z,28.10
2023-03-01T08:11:16.771Z,28.90
2023-03-01T08:14:05.171Z,25.90
2023-03-01T08:16:36.542Z,24.60
2023-03-01T08:19:09.340Z,27.10
2023-03-01T08:21:38.086Z,24.60
2023-03-01T08:24:07.722Z,26.90
2023-03-01T08:26:35.842Z,25.10
2023-03-01T08:29:04.046Z,31.20
2023-03-01T08:31:38.126Z,24.70
2023-03-01T08:34:14.502Z,20.50
2023-03-01T08:36:44.752Z,24.70
2023-03-01T08:39:15.271Z,28.50
2023-03-01T08:41:43.749Z,23.60
2023-03-01T08:44:12.869Z,30.00
2023-03-01T08:46:43.915Z,22.30
2023-03-01T08:49:14.838Z,23.30
2023-03-01T08:51:45.453Z,20.70
2023-03-01T08:54:21.441Z,23.00
2023-03-01T08:56:50.681Z,23.50
2023-03-01T08:59:19.413Z,23.20
2023-03-01T09:01:47.500Z,21.90
2023-03-01T09:04:15.964Z,23.40
2023-03-01T09:06:44.655Z,21.40
2023-03-01T09:09:16.623Z,24.10
2023-03-01T09:14:18.833Z,24.90
2023-03-01T09:16:47.632Z,19.70
2023-03-01T09:19:15.914Z,18.60
2023-03-01T09:21:53.457Z,19.60
2023-03-01T09:24:22.613Z,17.70
2023-03-01T09:26:51.857Z,20.60
2023-03-01T09:29:20.716Z,21.40
2023-03-01T09:31:48.972Z,19.70
2023-03-01T09:34:20.486Z,23.30
2023-03-01T09:36:48.734Z,21.60
2023-03-01T09:39:18.963Z,20.80
2023-03-01T09:42:04.131Z,19.70
2023-03-01T09:44:42.960Z,22.50
2023-03-01T09:47:21.439Z,19.90
2023-03-01T09:49:55.794Z,18.70
2023-03-01T09:53:13.528Z,19.80
2023-03-01T09:56:19.995Z,19.10
2023-03-01T09:58:58.327Z,19.50
2023-03-01T10:01:39.861Z,23.30
2023-03-01T10:04:46.152Z,17.20
2023-03-01T10:07:23.043Z,18.20
2023-03-01T10:09:52.345Z,21.10
2023-03-01T10:12:25.751Z,16.50
2023-03-01T10:14:56.876Z,22.40
2023-03-01T10:17:45.857Z,18.60
2023-03-01T10:20:18.574Z,18.70
2023-03-01T10:22:52.410Z,18.80
2023-03-01T10:25:24.184Z,18.90
2023-03-01T10:27:54.540Z,20.20
2023-03-01T10:30:31.091Z,19.10
2023-03-01T10:32:59.507Z,22.30
2023-03-01T10:35:33.464Z,14.80
2023-03-01T10:38:06.796Z,20.90
2023-03-01T10:40:35.765Z,18.10
2023-03-01T10:43:06.072Z,19.10
2023-03-01T10:45:40.279Z,20.60
2023-03-01T10:48:20.505Z,17.60
2023-03-01T10:50:50.174Z,21.10
2023-03-01T10:53:22.105Z,19.00
2023-03-01T10:55:50.061Z,19.50
2023-03-01T10:58:22.674Z,24.00
2023-03-01T11:01:04.658Z,21.30
2023-03-01T11:03:38.580Z,22.30
2023-03-01T11:06:12.408Z,19.50
2023-03-01T11:08:41.711Z,16.40
2023-03-01T11:11:35.773Z,18.30
2023-03-01T11:14:27.139Z,18.60
2023-03-01T11:17:29.099Z,17.00
2023-03-01T11:20:15.656Z,19.00
2023-03-01T11:22:56.844Z,17.40
2023-03-01T11:25:33.947Z,24.80
2023-03-01T11:28:06.539Z,23.00
2023-03-01T11:30:39.900Z,18.20
2023-03-01T11:33:18.421Z,15.30
2023-03-01T11:35:55.595Z,16.90
2023-03-01T11:38:27.445Z,20.80
2023-03-01T11:41:01.064Z,17.30
2023-03-01T11:43:32.740Z,17.10
2023-03-01T11:46:25.459Z,18.80
2023-03-01T11:49:19.740Z,17.30
2023-03-01T11:52:38.791Z,19.50
2023-03-01T11:55:31.268Z,15.80
2023-03-01T11:58:14.686Z,15.80
2023-03-01T12:00:48.595Z,20.10
2023-03-01T12:03:46.274Z,15.20
2023-03-01T12:06:46.583Z,15.00
2023-03-01T12:09:17.854Z,17.90
2023-03-01T12:12:04.611Z,17.50
2023-03-01T12:15:00.646Z,20.70
2023-03-01T12:18:03.932Z,14.60
2023-03-01T12:20:55.804Z,13.50
2023-03-01T12:23:58.750Z,15.00
2023-03-01T12:26:45.672Z,18.10
2023-03-01T12:29:30.870Z,17.40
2023-03-01T12:32:27.004Z,22.80
2023-03-01T12:35:30.516Z,21.60
2023-03-01T12:38:29.800Z,20.80
2023-03-01T12:41:20.917Z,20.20
2023-03-01T12:44:14.899Z,21.70
2023-03-01T12:47:11.461Z,19.70
2023-03-01T12:49:50.606Z,16.40
2023-03-01T12:52:39.077Z,17.30
2023-03-01T12:55:19.476Z,14.80
2023-03-01T12:57:52.144Z,15.00
2023-03-01T13:00:23.188Z,16.80
2023-03-01T13:03:32.592Z,16.00
2023-03-01T13:06:54.302Z,19.60
2023-03-01T13:09:52.712Z,18.70
2023-03-01T13:12:46.378Z,18.10
2023-03-01T13:15:23.422Z,19.90
2023-03-01T13:17:54.215Z,18.50
2023-03-01T13:20:26.506Z,17.00
2023-03-01T13:23:25.780Z,24.20
2023-03-01T13:26:00.170Z,22.40
2023-03-01T13:28:47.496Z,20.30
2023-03-01T13:31:16.320Z,18.90
2023-03-01T13:33:51.282Z,20.30
2023-03-01T13:36:28.811Z,19.70
2023-03-01T13:38:59.065Z,22.50
2023-03-01T13:41:40.675Z,17.10
2023-03-01T13:44:27.490Z,22.60
2023-03-01T13:47:16.464Z,17.80
2023-03-01T13:49:55.385Z,16.70
2023-03-01T13:52:53.550Z,16.10
2023-03-01T13:55:25.891Z,29.60
2023-03-01T13:57:58.972Z,14.50
2023-03-01T14:00:39.905Z,15.30
2023-03-01T14:03:18.132Z,15.00
2023-03-01T14:06:21.092Z,12.10
2023-03-01T14:08:51.017Z,12.20
2023-03-01T14:11:31.862Z,23.60
2023-03-01T14:14:34.654Z,13.20
2023-03-01T14:17:03.464Z,11.40
2023-03-01T14:19:33.649Z,13.90
2023-03-01T14:22:05.628Z,8.50
2023-03-01T14:24:34.034Z,12.90
2023-03-01T14:27:02.659Z,14.80
2023-03-01T14:29:38.644Z,13.10
2023-03-01T14:32:25.548Z,13.40
2023-03-01T14:34:54.349Z,11.10
2023-03-01T14:37:29.417Z,14.80
2023-03-01T14:39:58.275Z,14.10
2023-03-01T14:42:32.371Z,9.50
2023-03-01T14:45:06.073Z,19.40
2023-03-01T14:47:36.167Z,12.80
2023-03-01T14:50:26.920Z,10.30
2023-03-01T14:52:58.434Z,12.60
2023-03-01T14:55:28.785Z,12.50
2023-03-01T14:57:57.249Z,12.10
2023-03-01T15:00:28.426Z,9.30
2023-03-01T15:02:58.082Z,17.30
2023-03-01T15:05:30.957Z,14.10
2023-03-01T15:08:01.445Z,12.00
2023-03-01T15:10:35.790Z,14.50
2023-03-01T15:13:25.340Z,11.80
2023-03-01T15:18:21.643Z,13.20
2023-03-01T15:20:49.921Z,13.70
2023-03-01T15:23:29.114Z,13.90
2023-03-01T15:25:57.680Z,11.30
2023-03-01T15:28:32.103Z,14.10
2023-03-01T15:31:03.486Z,11.90
2023-03-01T15:33:34.635Z,10.00
2023-03-01T15:36:34.417Z,14.90
2023-03-01T15:39:02.977Z,14.00
2023-03-01T15:41:46.408Z,10.20
2023-03-01T15:44:42.484Z,15.60
2023-03-01T15:47:30.982Z,12.70
2023-03-01T15:50:00.230Z,12.90
2023-03-01T15:52:36.275Z,15.00
2023-03-01T15:55:07.400Z,11.90
2023-03-01T15:57:35.505Z,15.50
2023-03-01T16:00:12.423Z,12.60
2023-03-01T16:02:41.522Z,11.20
2023-03-01T16:05:22.154Z,11.40
2023-03-01T16:07:50.459Z,12.50
2023-03-01T16:10:20.378Z,19.00
2023-03-01T16:12:49.209Z,21.90
2023-03-01T16:15:25.558Z,14.40
2023-03-01T16:17:53.658Z,15.80
2023-03-01T16:20:29.076Z,15.80
2023-03-01T16:23:03.091Z,18.40
2023-03-01T16:25:33.550Z,14.30
2023-03-01T16:28:10.035Z,18.10
2023-03-01T16:30:41.359Z,15.90
2023-03-01T16:33:26.758Z,15.40
2023-03-01T16:35:59.205Z,14.90
2023-03-01T16:38:27.275Z,13.00
2023-03-01T16:40:55.657Z,18.40
2023-03-01T16:43:23.606Z,9.30
2023-03-01T16:45:52.239Z,15.80
2023-03-01T16:48:20.889Z,14.30
2023-03-01T16:51:00.000Z,21.00
2023-03-01T16:53:48.164Z,19.70
2023-03-01T16:56:19.146Z,21.40
2023-03-01T16:58:47.965Z,23.90
2023-03-01T17:01:24.527Z,22.00
2023-03-01T17:03:53.177Z,13.60
2023-03-01T17:06:23.046Z,26.60
2023-03-01T17:11:20.929Z,23.20
2023-03-01T17:13:56.606Z,31.90
2023-03-01T17:16:25.595Z,23.80
2023-03-01T17:18:53.683Z,28.90
2023-03-01T17:21:21.696Z,36.10
2023-03-01T17:23:50.580Z,29.40
2023-03-01T17:26:19.902Z,30.50
2023-03-01T17:28:52.382Z,23.70
2023-03-01T17:31:20.823Z,28.20
2023-03-01T17:33:50.255Z,26.40
2023-03-01T17:36:19.133Z,27.90
2023-03-01T17:38:49.863Z,30.70
2023-03-01T17:41:19.073Z,29.80
2023-03-01T17:43:47.119Z,25.50
2023-03-01T17:46:16.335Z,29.00
2023-03-01T17:48:44.664Z,25.50
2023-03-01T17:51:33.446Z,25.90
2023-03-01T17:54:01.702Z,27.00
2023-03-01T17:56:32.114Z,21.50
2023-03-01T17:59:07.208Z,28.10
2023-03-01T18:01:37.620Z,23.90
2023-03-01T18:04:05.912Z,44.60
2023-03-01T18:06:35.694Z,53.80
2023-03-01T18:09:04.915Z,69.10
2023-03-01T18:11:35.722Z,99.90
2023-03-01T18:16:34.543Z,50.50
2023-03-01T18:19:04.798Z,55.20
2023-03-01T18:21:34.458Z,61.10
2023-03-01T18:24:04.103Z,54.80
2023-03-01T18:26:33.988Z,54.10
2023-03-01T18:29:04.788Z,52.40
2023-03-01T18:31:37.326Z,32.30
2023-03-01T18:34:05.483Z,29.80
2023-03-01T18:36:35.548Z,26.00
2023-03-01T18:39:05.423Z,31.60
2023-03-01T18:41:33.817Z,29.30
2023-03-01T18:44:06.615Z,24.30
2023-03-01T18:46:38.903Z,21.80
2023-03-01T18:49:07.805Z,23.70
2023-03-01T18:51:36.806Z,20.40
2023-03-01T18:54:05.238Z,24.90
2023-03-01T18:56:34.434Z,21.20
2023-03-01T18:59:04.180Z,20.50
2023-03-01T19:01:36.606Z,24.30
2023-03-01T19:04:05.479Z,24.50
2023-03-01T19:06:35.518Z,21.80
2023-03-01T19:09:08.769Z,30.00
2023-03-01T19:11:38.852Z,25.10
2023-03-01T19:14:07.222Z,28.70
2023-03-01T19:16:40.373Z,25.00
2023-03-01T19:19:13.998Z,24.40
2023-03-01T19:21:42.076Z,25.00
2023-03-01T19:24:11.173Z,18.70
2023-03-01T19:26:42.318Z,20.90
2023-03-01T19:29:11.641Z,21.30
2023-03-01T19:31:39.825Z,25.80
2023-03-01T19:34:12.393Z,19.50
2023-03-01T19:36:44.669Z,25.10
2023-03-01T19:39:13.931Z,21.50
2023-03-01T19:41:43.502Z,20.60
2023-03-01T19:44:12.751Z,16.30
2023-03-01T19:46:41.228Z,18.60
2023-03-01T19:49:09.830Z,21.00
2023-03-01T19:51:39.706Z,17.50
2023-03-01T19:54:10.109Z,25.90
2023-03-01T19:56:38.859Z,17.40
2023-03-01T19:59:06.966Z,22.40
2023-03-01T20:01:38.021Z,20.60
2023-03-01T20:04:07.124Z,13.60
2023-03-01T20:06:39.498Z,20.70
2023-03-01T20:09:21.371Z,24.20
2023-03-01T20:11:56.515Z,22.00
2023-03-01T20:14:27.483Z,26.70
2023-03-01T20:16:55.837Z,26.30
2023-03-01T20:19:24.342Z,27.90
2023-03-01T20:21:53.723Z,27.50
2023-03-01T20:24:22.781Z,33.10
2023-03-01T20:26:52.050Z,30.20
2023-03-01T20:29:22.157Z,33.20
2023-03-01T20:31:50.567Z,27.40
2023-03-01T20:34:23.160Z,37.90
2023-03-01T20:37:03.387Z,32.10
2023-03-01T20:39:36.664Z,28.20
2023-03-01T20:42:08.964Z,29.90
2023-03-01T20:44:43.266Z,29.40
2023-03-01T20:47:21.266Z,31.80
2023-03-01T20:49:52.117Z,31.00
2023-03-01T20:52:27.418Z,27.10
2023-03-01T20:54:57.916Z,25.90
2023-03-01T20:57:30.116Z,27.30
2023-03-01T20:59:58.519Z,28.20
2023-03-01T21:02:29.861Z,33.70
2023-03-01T21:04:58.544Z,23.60
2023-03-01T21:07:26.521Z,21.10
2023-03-01T21:09:54.514Z,24.30
2023-03-01T21:12:22.652Z,27.90
2023-03-01T21:14:50.590Z,24.10
2023-03-01T21:17:25.321Z,24.80
2023-03-01T21:19:53.373Z,24.60
2023-03-01T21:22:21.790Z,24.00
2023-03-01T21:24:51.161Z,22.70
2023-03-01T21:27:19.389Z,23.80
2023-03-01T21:29:47.873Z,19.90
2023-03-01T21:32:16.089Z,17.10
2023-03-01T21:34:44.810Z,17.80
2023-03-01T21:37:13.403Z,19.20
2023-03-01T21:39:42.088Z,22.90
2023-03-01T21:42:14.050Z,17.40
2023-03-01T21:44:42.818Z,14.80
2023-03-01T21:47:10.818Z,14.10
2023-03-01T21:49:39.394Z,14.60
2023-03-01T21:52:07.379Z,14.70
2023-03-01T21:54:39.321Z,14.70
2023-03-01T21:57:07.768Z,17.20
2023-03-01T21:59:37.412Z,15.90
2023-03-01T22:02:05.749Z,13.20
2023-03-01T22:04:35.064Z,12.40
2023-03-01T22:07:03.887Z,15.30
2023-03-01T22:09:35.115Z,15.10
2023-03-01T22:12:04.002Z,12.50
2023-03-01T22:14:32.833Z,17.20
2023-03-01T22:17:03.109Z,10.70
2023-03-01T22:19:32.271Z,11.00
2023-03-01T22:22:00.604Z,16.70
2023-03-01T22:24:32.755Z,11.40
2023-03-01T22:27:01.348Z,9.30
2023-03-01T22:29:34.199Z,13.60
2023-03-01T22:32:02.617Z,11.90
2023-03-01T22:34:30.825Z,16.20
2023-03-01T22:36:59.395Z,17.00
2023-03-01T22:39:27.466Z,10.40
2023-03-01T22:41:56.434Z,19.80
2023-03-01T22:44:24.828Z,12.10
2023-03-01T22:46:57.116Z,15.20
2023-03-01T22:49:25.914Z,13.10
2023-03-01T22:51:54.275Z,12.60
2023-03-01T22:54:22.388Z,15.20
2023-03-01T22:56:50.798Z,12.10
2023-03-01T22:59:23.171Z,15.20
2023-03-01T23:01:52.367Z,18.30
2023-03-01T23:04:20.911Z,13.10
2023-03-01T23:06:50.404Z,14.80
2023-03-01T23:09:20.798Z,15.10
2023-03-01T23:11:50.576Z,12.50
2023-03-01T23:14:19.403Z,14.20
2023-03-01T23:16:49.239Z,15.90
2023-03-01T23:19:18.881Z,17.40
2023-03-01T23:21:50.056Z,14.60
2023-03-01T23:24:19.373Z,13.90
2023-03-01T23:26:53.261Z,15.90
2023-03-01T23:29:22.491Z,16.10
2023-03-01T23:31:50.537Z,12.20
2023-03-01T23:34:19.260Z,16.80
2023-03-01T23:36:47.970Z,14.30
2023-03-01T23:39:17.093Z,15.30
2023-03-01T23:41:45.342Z,18.80
2023-03-01T23:44:17.542Z,15.70
2023-03-01T23:46:46.360Z,15.70
2023-03-01T23:49:16.407Z,15.40
2023-03-01T23:51:47.745Z,17.50
2023-03-01T23:54:20.475Z,17.00
2023-03-01T23:56:48.854Z,16.00
2023-03-01T23:59:19.283Z,17.40
